createdAt,value
2023-02-07T00:01:40.164Z,38.44
2023-02-07T00:04:07.090Z,38.58
2023-02-07T00:06:35.160Z,38.59
2023-02-07T00:09:03.551Z,38.56
2023-02-07T00:11:30.980Z,39.13
2023-02-07T00:13:59.069Z,39.21
2023-02-07T00:16:26.539Z,39.42
2023-02-07T00:18:53.605Z,39.44
2023-02-07T00:21:23.433Z,39.63
2023-02-07T00:23:51.120Z,40.00
2023-02-07T00:26:18.689Z,39.62
2023-02-07T00:28:46.061Z,39.93
2023-02-07T00:31:15.932Z,40.25
2023-02-07T00:33:43.908Z,40.00
2023-02-07T00:36:12.576Z,39.96
2023-02-07T00:38:42.705Z,39.80
2023-02-07T00:41:09.534Z,39.95
2023-02-07T00:43:36.858Z,39.80
2023-02-07T00:46:06.584Z,39.76
2023-02-07T00:48:33.757Z,39.90
2023-02-07T00:51:01.367Z,39.55
2023-02-07T00:53:29.449Z,39.93
2023-02-07T00:55:58.556Z,39.58
2023-02-07T00:58:26.084Z,40.04
2023-02-07T01:00:53.261Z,39.88
2023-02-07T01:03:20.409Z,39.59
2023-02-07T01:05:47.350Z,39.71
2023-02-07T01:08:14.201Z,39.70
2023-02-07T01:10:41.953Z,39.88
2023-02-07T01:13:08.870Z,39.91
2023-02-07T01:15:38.088Z,39.75
2023-02-07T01:18:05.714Z,39.79
2023-02-07T01:20:32.990Z,40.00
2023-02-07T01:22:59.938Z,40.27
2023-02-07T01:25:27.112Z,40.19
2023-02-07T01:27:53.931Z,40.05
2023-02-07T01:30:21.041Z,40.30
2023-02-07T01:32:47.868Z,39.95
2023-02-07T01:35:14.648Z,40.38
2023-02-07T01:37:41.519Z,40.49
2023-02-07T01:40:09.205Z,40.56
2023-02-07T01:42:36.241Z,40.38
2023-02-07T01:45:07.375Z,40.46
2023-02-07T01:47:34.606Z,40.37
2023-02-07T01:50:01.551Z,40.49
2023-02-07T01:52:31.262Z,40.37
2023-02-07T01:55:02.312Z,40.45
2023-02-07T01:57:29.155Z,40.74
2023-02-07T01:59:57.654Z,40.91
2023-02-07T02:02:26.410Z,40.51
2023-02-07T02:04:54.692Z,40.55
2023-02-07T02:07:21.992Z,40.88
2023-02-07T02:09:49.070Z,40.63
2023-02-07T02:12:16.201Z,41.02
2023-02-07T02:14:46.168Z,40.81
2023-02-07T02:17:16.244Z,40.92
2023-02-07T02:19:46.182Z,40.95
2023-02-07T02:22:16.132Z,40.83
2023-02-07T02:24:53.524Z,40.86
2023-02-07T02:27:21.326Z,41.24
2023-02-07T02:29:51.835Z,41.14
2023-02-07T02:32:24.198Z,41.30
2023-02-07T02:34:56.455Z,41.00
2023-02-07T02:37:26.380Z,41.09
2023-02-07T02:39:54.760Z,41.59
2023-02-07T02:42:22.277Z,41.31
2023-02-07T02:44:52.094Z,41.44
2023-02-07T02:47:20.302Z,41.36
2023-02-07T02:49:47.541Z,41.78
2023-02-07T02:52:14.393Z,41.78
2023-02-07T02:54:41.073Z,41.42
2023-02-07T02:57:16.120Z,41.57
2023-02-07T02:59:53.271Z,41.37
2023-02-07T03:02:23.392Z,41.75
2023-02-07T03:04:53.228Z,41.64
2023-02-07T03:07:31.826Z,41.69
2023-02-07T03:09:58.897Z,41.82
2023-02-07T03:12:27.606Z,41.58
2023-02-07T03:15:01.006Z,41.86
2023-02-07T03:17:32.501Z,42.11
2023-02-07T03:20:02.616Z,41.84
2023-02-07T03:22:30.499Z,41.89
2023-02-07T03:24:59.041Z,41.81
2023-02-07T03:27:27.947Z,42.00
2023-02-07T03:29:58.076Z,42.05
2023-02-07T03:32:28.102Z,42.09
2023-02-07T03:34:58.360Z,42.06
2023-02-07T03:37:28.085Z,41.86
2023-02-07T03:39:54.996Z,41.96
2023-02-07T03:42:23.012Z,42.02
2023-02-07T03:44:51.952Z,41.89
2023-02-07T03:47:19.612Z,42.13
2023-02-07T03:49:46.290Z,41.61
2023-02-07T03:52:13.027Z,41.68
2023-02-07T03:54:39.712Z,41.71
2023-02-07T03:57:06.778Z,41.54
2023-02-07T03:59:33.513Z,41.67
2023-02-07T04:02:00.622Z,41.97
2023-02-07T04:04:27.400Z,41.54
2023-02-07T04:06:54.745Z,41.92
2023-02-07T04:09:21.638Z,41.55
2023-02-07T04:11:49.654Z,41.98
2023-02-07T04:14:16.532Z,41.97
2023-02-07T04:16:43.219Z,42.08
2023-02-07T04:19:09.852Z,42.16
2023-02-07T04:21:36.848Z,41.70
2023-02-07T04:24:05.852Z,41.88
2023-02-07T04:26:32.560Z,42.02
2023-02-07T04:28:59.283Z,42.46
2023-02-07T04:31:26.040Z,42.61
2023-02-07T04:33:52.855Z,42.55
2023-02-07T04:36:19.785Z,42.38
2023-02-07T04:38:46.542Z,42.57
2023-02-07T04:41:13.266Z,42.59
2023-02-07T04:43:40.228Z,42.73
2023-02-07T04:46:07.739Z,42.52
2023-02-07T04:48:34.511Z,42.42
2023-02-07T04:51:01.199Z,42.39
2023-02-07T04:53:27.897Z,42.62
2023-02-07T04:55:54.955Z,42.50
2023-02-07T04:58:24.707Z,42.42
2023-02-07T05:00:52.460Z,42.55
2023-02-07T05:03:19.226Z,42.63
2023-02-07T05:05:46.014Z,42.46
2023-02-07T05:08:13.533Z,42.42
2023-02-07T05:10:40.345Z,42.54
2023-02-07T05:13:07.624Z,42.44
2023-02-07T05:15:34.338Z,42.49
2023-02-07T05:18:01.468Z,42.16
2023-02-07T05:20:28.146Z,42.35
2023-02-07T05:22:54.807Z,42.73
2023-02-07T05:25:21.891Z,42.49
2023-02-07T05:27:48.565Z,42.80
2023-02-07T05:30:15.596Z,42.47
2023-02-07T05:32:45.347Z,42.64
2023-02-07T05:35:12.199Z,42.57
2023-02-07T05:37:38.883Z,42.48
2023-02-07T05:40:05.851Z,42.62
2023-02-07T05:42:32.562Z,42.82
2023-02-07T05:44:59.541Z,42.33
2023-02-07T05:47:26.582Z,42.66
2023-02-07T05:49:53.452Z,42.79
2023-02-07T05:52:20.546Z,42.99
2023-02-07T05:54:49.425Z,42.78
2023-02-07T05:57:18.724Z,42.73
2023-02-07T05:59:45.406Z,42.56
2023-02-07T06:02:12.129Z,42.38
2023-02-07T06:04:38.914Z,42.25
2023-02-07T06:07:05.649Z,42.06
2023-02-07T06:09:32.466Z,42.41
2023-02-07T06:11:59.434Z,42.39
2023-02-07T06:14:26.447Z,42.58
2023-02-07T06:16:53.228Z,41.66
2023-02-07T06:19:19.978Z,41.78
2023-02-07T06:21:47.149Z,41.88
2023-02-07T06:24:14.709Z,41.33
2023-02-07T06:26:41.441Z,41.93
2023-02-07T06:29:08.633Z,41.48
2023-02-07T06:31:35.377Z,41.20
2023-02-07T06:34:02.470Z,41.67
2023-02-07T06:36:29.460Z,41.69
2023-02-07T06:38:56.165Z,41.20
2023-02-07T06:41:23.070Z,41.10
2023-02-07T06:43:49.799Z,41.05
2023-02-07T06:46:17.482Z,41.13
2023-02-07T06:48:44.201Z,40.73
2023-02-07T06:51:10.876Z,40.54
2023-02-07T06:53:37.635Z,40.70
2023-02-07T06:56:04.656Z,40.23
2023-02-07T06:58:31.342Z,39.99
2023-02-07T07:00:58.074Z,40.33
2023-02-07T07:03:28.610Z,39.74
2023-02-07T07:05:56.545Z,39.77
2023-02-07T07:08:25.647Z,40.00
2023-02-07T07:10:52.722Z,39.72
2023-02-07T07:13:19.475Z,39.48
2023-02-07T07:15:46.229Z,39.67
2023-02-07T07:18:13.189Z,40.42
2023-02-07T07:20:40.121Z,39.57
2023-02-07T07:23:06.926Z,39.42
2023-02-07T07:25:33.758Z,38.81
2023-02-07T07:28:00.629Z,38.88
2023-02-07T07:30:27.755Z,39.04
2023-02-07T07:32:54.691Z,38.77
2023-02-07T07:35:21.664Z,38.91
2023-02-07T07:37:52.346Z,37.44
2023-02-07T07:40:19.149Z,37.43
2023-02-07T07:42:46.078Z,38.09
2023-02-07T07:45:13.661Z,37.13
2023-02-07T07:47:40.621Z,37.38
2023-02-07T07:50:09.677Z,36.76
2023-02-07T07:52:36.521Z,36.76
2023-02-07T07:55:03.711Z,36.81
2023-02-07T07:57:30.655Z,36.50
2023-02-07T07:59:57.434Z,36.25
2023-02-07T08:02:24.695Z,36.51
2023-02-07T08:04:51.481Z,36.40
2023-02-07T08:07:20.683Z,36.06
2023-02-07T08:09:49.743Z,36.19
2023-02-07T08:12:16.523Z,36.09
2023-02-07T08:14:43.322Z,35.90
2023-02-07T08:17:10.118Z,35.67
2023-02-07T08:19:38.699Z,35.97
2023-02-07T08:22:05.697Z,35.48
2023-02-07T08:24:34.650Z,35.48
2023-02-07T08:27:01.616Z,35.88
2023-02-07T08:29:28.417Z,33.78
2023-02-07T08:31:55.300Z,31.55
2023-02-07T08:34:26.401Z,33.01
2023-02-07T08:36:55.676Z,33.73
2023-02-07T08:39:23.415Z,33.93
2023-02-07T08:41:50.296Z,34.21
2023-02-07T08:44:17.202Z,34.07
2023-02-07T08:46:43.975Z,34.64
2023-02-07T08:49:10.801Z,35.07
2023-02-07T08:51:37.631Z,34.92
2023-02-07T08:54:07.342Z,34.91
2023-02-07T08:56:34.176Z,35.17
2023-02-07T08:59:06.376Z,35.39
2023-02-07T09:01:36.468Z,34.92
2023-02-07T09:04:03.363Z,35.42
2023-02-07T09:06:30.206Z,35.48
2023-02-07T09:08:59.285Z,35.07
2023-02-07T09:11:28.682Z,35.38
2023-02-07T09:13:55.573Z,35.42
2023-02-07T09:16:23.636Z,35.32
2023-02-07T09:18:53.924Z,35.34
2023-02-07T09:21:20.796Z,35.36
2023-02-07T09:23:47.624Z,35.18
2023-02-07T09:26:17.478Z,35.08
2023-02-07T09:28:44.403Z,35.03
2023-02-07T09:31:12.691Z,35.24
2023-02-07T09:33:39.985Z,35.48
2023-02-07T09:36:07.209Z,35.49
2023-02-07T09:38:33.960Z,35.30
2023-02-07T09:41:00.755Z,35.59
2023-02-07T09:43:29.457Z,35.39
2023-02-07T09:46:03.138Z,35.44
2023-02-07T09:48:37.741Z,35.74
2023-02-07T09:51:05.526Z,35.65
2023-02-07T09:53:35.426Z,35.35
2023-02-07T09:56:03.037Z,35.51
2023-02-07T09:58:32.900Z,35.64
2023-02-07T10:01:02.818Z,35.62
2023-02-07T10:03:30.558Z,35.81
2023-02-07T10:06:06.221Z,35.72
2023-02-07T10:08:44.472Z,36.03
2023-02-07T10:11:14.416Z,35.72
2023-02-07T10:13:45.623Z,35.78
2023-02-07T10:16:15.552Z,36.14
2023-02-07T10:18:43.701Z,35.78
2023-02-07T10:21:11.955Z,35.77
2023-02-07T10:23:40.404Z,35.73
2023-02-07T10:26:10.456Z,36.18
2023-02-07T10:28:38.813Z,36.25
2023-02-07T10:31:12.360Z,35.75
2023-02-07T10:33:41.595Z,35.75
2023-02-07T10:36:16.219Z,36.10
2023-02-07T10:38:56.732Z,35.90
2023-02-07T10:41:29.916Z,36.28
2023-02-07T10:43:56.900Z,35.89
2023-02-07T10:46:23.954Z,36.24
2023-02-07T10:48:50.735Z,35.94
2023-02-07T10:51:20.636Z,36.37
2023-02-07T10:53:54.953Z,36.71
2023-02-07T10:56:26.027Z,36.39
2023-02-07T10:58:54.472Z,36.53
2023-02-07T11:01:22.516Z,36.84
2023-02-07T11:03:49.431Z,36.85
2023-02-07T11:06:24.197Z,36.34
2023-02-07T11:08:51.174Z,36.55
2023-02-07T11:11:19.727Z,36.76
2023-02-07T11:13:49.418Z,36.73
2023-02-07T11:16:23.415Z,37.04
2023-02-07T11:18:53.432Z,36.58
2023-02-07T11:21:22.797Z,36.58
2023-02-07T11:23:50.615Z,36.48
2023-02-07T11:26:19.561Z,36.54
2023-02-07T11:28:47.037Z,36.50
2023-02-07T11:31:18.576Z,36.69
2023-02-07T11:33:45.446Z,36.40
2023-02-07T11:36:20.880Z,36.78
2023-02-07T11:38:49.647Z,36.79
2023-02-07T11:41:18.447Z,36.77
2023-02-07T11:43:48.727Z,36.74
2023-02-07T11:46:15.616Z,36.77
2023-02-07T11:48:42.518Z,36.87
2023-02-07T11:51:15.577Z,36.77
2023-02-07T11:53:46.008Z,36.67
2023-02-07T11:56:25.018Z,36.52
2023-02-07T11:58:52.502Z,36.50
2023-02-07T12:01:23.588Z,36.56
2023-02-07T12:03:55.633Z,36.51
2023-02-07T12:06:24.834Z,36.67
2023-02-07T12:08:52.700Z,36.64
2023-02-07T12:11:22.605Z,36.52
2023-02-07T12:13:53.236Z,36.58
2023-02-07T12:16:23.791Z,36.98
2023-02-07T12:18:54.123Z,36.67
2023-02-07T12:21:24.239Z,36.52
2023-02-07T12:23:54.667Z,36.60
2023-02-07T12:26:25.344Z,36.77
2023-02-07T12:29:12.186Z,36.91
2023-02-07T12:31:42.985Z,36.87
2023-02-07T12:34:12.991Z,36.79
2023-02-07T12:36:43.709Z,36.70
2023-02-07T12:39:13.878Z,36.59
2023-02-07T12:41:47.428Z,36.72
2023-02-07T12:44:17.209Z,36.87
2023-02-07T12:46:47.645Z,36.69
2023-02-07T12:49:19.643Z,36.58
2023-02-07T12:51:49.544Z,36.84
2023-02-07T12:54:22.946Z,36.81
2023-02-07T12:56:53.062Z,36.77
2023-02-07T12:59:20.540Z,36.75
2023-02-07T13:01:47.793Z,36.83
2023-02-07T13:04:14.977Z,36.77
2023-02-07T13:06:45.830Z,36.55
2023-02-07T13:09:16.748Z,36.84
2023-02-07T13:11:52.517Z,36.76
2023-02-07T13:14:22.481Z,36.69
2023-02-07T13:16:52.073Z,36.45
2023-02-07T13:19:24.806Z,36.49
2023-02-07T13:21:55.026Z,36.92
2023-02-07T13:24:31.444Z,36.94
2023-02-07T13:27:01.081Z,36.81
2023-02-07T13:29:30.359Z,36.78
2023-02-07T13:32:00.809Z,36.63
2023-02-07T13:34:30.873Z,36.45
2023-02-07T13:37:02.863Z,36.83
2023-02-07T13:39:36.788Z,36.84
2023-02-07T13:42:06.860Z,36.65
2023-02-07T13:44:41.185Z,36.72
2023-02-07T13:47:11.708Z,36.55
2023-02-07T13:49:42.015Z,36.83
2023-02-07T13:52:11.662Z,36.59
2023-02-07T13:54:41.945Z,36.95
2023-02-07T13:57:22.368Z,36.87
2023-02-07T13:59:52.303Z,36.93
2023-02-07T14:02:20.836Z,36.86
2023-02-07T14:04:50.785Z,36.95
2023-02-07T14:07:23.515Z,36.72
2023-02-07T14:09:50.765Z,36.90
2023-02-07T14:12:17.869Z,36.76
2023-02-07T14:15:00.358Z,36.57
2023-02-07T14:17:31.780Z,37.01
2023-02-07T14:19:59.376Z,37.07
2023-02-07T14:22:28.104Z,37.04
2023-02-07T14:24:58.735Z,37.00
2023-02-07T14:27:29.145Z,36.79
2023-02-07T14:30:10.108Z,36.73
2023-02-07T14:32:43.860Z,36.74
2023-02-07T14:35:12.540Z,36.94
2023-02-07T14:37:41.726Z,36.88
2023-02-07T14:40:12.060Z,36.79
2023-02-07T14:42:39.549Z,36.84
2023-02-07T14:45:07.386Z,37.17
2023-02-07T14:47:37.756Z,37.25
2023-02-07T14:50:07.722Z,37.07
2023-02-07T14:52:36.165Z,37.09
2023-02-07T14:55:06.175Z,37.31
2023-02-07T14:57:33.742Z,37.20
2023-02-07T15:00:01.173Z,37.24
2023-02-07T15:02:34.756Z,37.32
2023-02-07T15:05:04.667Z,36.92
2023-02-07T15:07:31.823Z,37.18
2023-02-07T15:09:58.644Z,37.13
2023-02-07T15:12:28.123Z,37.03
2023-02-07T15:14:57.241Z,36.90
2023-02-07T15:17:33.356Z,37.13
2023-02-07T15:20:03.080Z,37.27
2023-02-07T15:22:32.126Z,36.90
2023-02-07T15:24:59.806Z,36.93
2023-02-07T15:27:32.440Z,37.18
2023-02-07T15:30:00.441Z,37.26
2023-02-07T15:32:30.344Z,37.10
2023-02-07T15:34:57.771Z,37.15
2023-02-07T15:37:26.296Z,37.39
2023-02-07T15:39:54.743Z,37.10
2023-02-07T15:42:22.116Z,37.33
2023-02-07T15:44:51.944Z,37.13
2023-02-07T15:47:28.289Z,37.23
2023-02-07T15:50:02.999Z,37.20
2023-02-07T15:52:34.405Z,37.41
2023-02-07T15:55:03.786Z,37.28
2023-02-07T15:57:34.003Z,37.36
2023-02-07T16:00:02.392Z,37.16
2023-02-07T16:02:33.425Z,37.38
2023-02-07T16:05:08.240Z,37.49
2023-02-07T16:07:36.271Z,37.28
2023-02-07T16:10:06.180Z,37.32
2023-02-07T16:12:34.541Z,37.54
2023-02-07T16:15:02.184Z,37.45
2023-02-07T16:17:38.092Z,37.26
2023-02-07T16:20:05.208Z,37.15
2023-02-07T16:22:35.243Z,37.47
2023-02-07T16:25:02.906Z,37.46
2023-02-07T16:27:34.122Z,37.53
2023-02-07T16:30:03.014Z,37.34
2023-02-07T16:32:32.834Z,37.23
2023-02-07T16:35:00.494Z,37.67
2023-02-07T16:37:29.866Z,37.98
2023-02-07T16:39:56.708Z,37.65
2023-02-07T16:42:23.666Z,37.30
2023-02-07T16:44:50.933Z,37.37
2023-02-07T16:47:18.476Z,37.22
2023-02-07T16:49:46.274Z,37.21
2023-02-07T16:52:13.674Z,37.13
2023-02-07T16:54:41.172Z,37.23
2023-02-07T16:57:12.215Z,37.30
2023-02-07T16:59:39.536Z,37.29
2023-02-07T17:02:11.854Z,37.26
2023-02-07T17:04:39.203Z,37.16
2023-02-07T17:07:06.491Z,36.83
2023-02-07T17:09:34.085Z,36.99
2023-02-07T17:12:01.323Z,37.03
2023-02-07T17:14:28.792Z,37.10
2023-02-07T17:16:58.537Z,36.74
2023-02-07T17:19:26.862Z,36.87
2023-02-07T17:21:54.385Z,36.74
2023-02-07T17:24:21.782Z,37.18
2023-02-07T17:26:51.565Z,37.02
2023-02-07T17:29:19.197Z,36.78
2023-02-07T17:31:46.801Z,37.07
2023-02-07T17:34:14.296Z,37.30
2023-02-07T17:36:44.012Z,37.13
2023-02-07T17:39:12.870Z,36.75
2023-02-07T17:41:40.366Z,36.96
2023-02-07T17:44:08.234Z,36.75
2023-02-07T17:46:35.764Z,37.15
2023-02-07T17:49:03.334Z,37.06
2023-02-07T17:51:30.683Z,36.89
2023-02-07T17:53:58.152Z,36.83
2023-02-07T17:56:27.107Z,36.74
2023-02-07T17:58:55.788Z,36.57
2023-02-07T18:01:23.404Z,36.32
2023-02-07T18:03:52.795Z,36.17
2023-02-07T18:06:21.938Z,36.50
2023-02-07T18:08:50.333Z,36.45
2023-02-07T18:11:18.010Z,36.29
2023-02-07T18:13:47.179Z,35.83
2023-02-07T18:16:16.455Z,36.01
2023-02-07T18:18:44.105Z,35.69
2023-02-07T18:21:13.670Z,36.08
2023-02-07T18:23:43.308Z,35.87
2023-02-07T18:26:12.065Z,35.80
2023-02-07T18:28:39.509Z,35.75
2023-02-07T18:31:10.314Z,35.50
2023-02-07T18:33:37.945Z,35.74
2023-02-07T18:36:05.615Z,35.36
2023-02-07T18:38:32.937Z,35.76
2023-02-07T18:41:00.303Z,35.77
2023-02-07T18:43:27.488Z,35.43
2023-02-07T18:45:54.807Z,35.35
2023-02-07T18:48:21.963Z,35.66
2023-02-07T18:50:49.412Z,35.42
2023-02-07T18:53:16.702Z,35.48
2023-02-07T18:55:44.213Z,35.36
2023-02-07T18:58:11.667Z,35.35
2023-02-07T19:00:39.112Z,35.68
2023-02-07T19:03:06.463Z,35.38
2023-02-07T19:05:33.540Z,35.41
2023-02-07T19:08:00.749Z,35.36
2023-02-07T19:10:27.864Z,35.14
2023-02-07T19:12:55.169Z,35.58
2023-02-07T19:15:22.776Z,35.38
2023-02-07T19:17:49.883Z,35.04
2023-02-07T19:20:16.927Z,35.44
2023-02-07T19:22:45.096Z,35.49
2023-02-07T19:25:13.584Z,35.30
2023-02-07T19:27:40.864Z,35.15
2023-02-07T19:30:08.682Z,35.20
2023-02-07T19:32:35.886Z,35.53
2023-02-07T19:35:03.071Z,35.60
2023-02-07T19:37:30.010Z,35.71
2023-02-07T19:39:57.028Z,35.66
2023-02-07T19:42:25.063Z,35.21
2023-02-07T19:44:52.172Z,35.33
2023-02-07T19:47:19.110Z,35.46
2023-02-07T19:49:51.950Z,35.33
2023-02-07T19:52:19.577Z,35.76
2023-02-07T19:54:46.848Z,35.67
2023-02-07T19:57:13.824Z,35.77
2023-02-07T19:59:40.771Z,35.64
2023-02-07T20:02:07.900Z,35.88
2023-02-07T20:04:34.991Z,35.54
2023-02-07T20:07:03.170Z,35.46
2023-02-07T20:09:30.411Z,35.75
2023-02-07T20:11:57.382Z,35.83
2023-02-07T20:14:24.430Z,35.76
2023-02-07T20:16:51.335Z,35.86
2023-02-07T20:19:18.227Z,36.03
2023-02-07T20:21:45.388Z,35.59
2023-02-07T20:24:12.412Z,35.54
2023-02-07T20:26:41.180Z,35.66
2023-02-07T20:29:09.873Z,36.03
2023-02-07T20:31:37.386Z,35.61
2023-02-07T20:34:04.626Z,35.99
2023-02-07T20:36:32.196Z,35.81
2023-02-07T20:38:59.862Z,35.77
2023-02-07T20:41:30.970Z,35.75
2023-02-07T20:43:59.158Z,35.89
2023-02-07T20:46:27.102Z,35.89
2023-02-07T20:48:56.163Z,35.77
2023-02-07T20:51:23.354Z,35.89
2023-02-07T20:53:50.420Z,36.07
2023-02-07T20:56:18.020Z,35.80
2023-02-07T20:58:47.637Z,36.15
2023-02-07T21:01:16.824Z,36.13
2023-02-07T21:03:46.626Z,35.86
2023-02-07T21:06:13.983Z,36.16
2023-02-07T21:08:41.514Z,36.00
2023-02-07T21:11:09.092Z,35.94
2023-02-07T21:13:36.840Z,36.05
2023-02-07T21:16:04.729Z,35.88
2023-02-07T21:18:32.512Z,35.96
2023-02-07T21:21:00.408Z,36.10
2023-02-07T21:23:27.550Z,35.79
2023-02-07T21:25:54.680Z,36.00
2023-02-07T21:28:21.851Z,36.26
2023-02-07T21:30:48.980Z,36.33
2023-02-07T21:33:16.074Z,36.72
2023-02-07T21:35:43.109Z,36.79
2023-02-07T21:38:10.087Z,36.75
2023-02-07T21:40:37.255Z,36.76
2023-02-07T21:43:05.208Z,36.40
2023-02-07T21:45:32.310Z,36.58
2023-02-07T21:47:59.403Z,36.66
2023-02-07T21:50:26.506Z,36.51
2023-02-07T21:52:53.462Z,36.57
2023-02-07T21:55:21.511Z,36.57
2023-02-07T21:57:48.428Z,36.30
2023-02-07T22:00:15.449Z,36.32
2023-02-07T22:02:42.287Z,36.65
2023-02-07T22:05:09.353Z,36.27
2023-02-07T22:07:36.240Z,36.55
2023-02-07T22:10:03.183Z,36.46
2023-02-07T22:12:30.119Z,36.46
2023-02-07T22:14:56.979Z,36.03
2023-02-07T22:17:23.854Z,36.50
2023-02-07T22:19:52.004Z,36.28
2023-02-07T22:22:19.207Z,36.29
2023-02-07T22:24:46.244Z,36.27
2023-02-07T22:27:13.196Z,36.49
2023-02-07T22:29:40.169Z,36.23
2023-02-07T22:32:07.153Z,36.09
2023-02-07T22:34:34.725Z,36.03
2023-02-07T22:37:01.697Z,35.95
2023-02-07T22:39:29.135Z,36.41
2023-02-07T22:41:56.789Z,36.26
2023-02-07T22:44:25.189Z,36.21
2023-02-07T22:46:52.443Z,35.92
2023-02-07T22:49:19.683Z,35.80
2023-02-07T22:51:46.915Z,35.78
2023-02-07T22:54:16.410Z,36.05
2023-02-07T22:56:44.987Z,35.98
2023-02-07T22:59:12.567Z,36.08
2023-02-07T23:01:40.590Z,35.91
2023-02-07T23:04:08.846Z,36.03
2023-02-07T23:06:36.077Z,36.22
2023-02-07T23:09:03.106Z,36.52
2023-02-07T23:11:29.943Z,36.46
2023-02-07T23:13:56.948Z,36.53
2023-02-07T23:16:25.290Z,36.59
2023-02-07T23:18:53.203Z,36.27
2023-02-07T23:21:21.632Z,36.46
2023-02-07T23:23:49.152Z,36.51
2023-02-07T23:26:17.468Z,36.45
2023-02-07T23:28:45.408Z,36.29
2023-02-07T23:31:14.982Z,36.27
2023-02-07T23:33:42.127Z,36.63
2023-02-07T23:36:09.129Z,36.27
2023-02-07T23:38:36.639Z,36.55
2023-02-07T23:41:03.910Z,36.21
2023-02-07T23:43:30.854Z,36.41
2023-02-07T23:45:57.966Z,36.31
2023-02-07T23:48:25.473Z,36.42
2023-02-07T23:50:53.007Z,36.59
2023-02-07T23:53:20.241Z,36.51
2023-02-07T23:55:48.588Z,36.43
2023-02-07T23:58:15.705Z,36.56
